Аэропорт: Алматы. Алма-Ата

ICAO: UAAA

METAR:
Информация по данной станции не доступна
METAR:
2021-01-26 23:01:00
TAF UAAA 262301Z 2700/2724 16003G08MPS 0800 FZFG VV003 TXM04/2709Z TNM11/2701Z TEMPO 2700/2705 22002MPS 0200 -SG FZFG VV001 FM270600 02003G08MPS 3100 BR FU SCT011 BKN100 TEMPO 2706/2712 1700 BECMG 2712/2713 16003MPS 1200 TEMPO 2713/2724 0500 FZFG FEW003